NCAR-RAP Real-Time Weather Data

Output produced by METARs form (14 October 2019  23:54 UTC)
found at http://weather.rap.ucar.edu/surface/
 
KMGM 142253Z 35003KT 10SM OVC090 24/18 A3006 RMK AO2 SLP175 T02440178 $
KMGM 142153Z 01003KT 10SM BKN100 BKN110 26/17 A3005 RMK AO2 SLP175 T02560167 $
KMGM 142053Z 36004KT 10SM OVC080 26/17 A3007 RMK AO2 SLP179 T02560167 55013 $
KMGM 141953Z VRB03KT 10SM FEW070 BKN095 26/17 A3006 RMK AO2 SLP176 T02560167 $
KMGM 141853Z 36005KT 10SM BKN080 26/16 A3008 RMK AO2 SLP184 T02560161 $
KMGM 141753Z VRB03KT 10SM OVC038 26/16 A3011 RMK AO2 SLP192 T02560161 10256 20156 58014 $
KMGM 141653Z 01003KT 10SM SCT037 23/16 A3013 RMK AO2 SLP202 T02280156 $
KMGM 141553Z 36005KT 10SM OVC038 21/15 A3014 RMK AO2 SLP203 T02110150 $
KMGM 141453Z 01004KT 10SM FEW038 BKN049 OVC070 19/15 A3014 RMK AO2 SLP206 T01940150 53013 $
KMGM 141353Z 02003KT 10SM OVC038 18/14 A3014 RMK AO2 SLP203 T01780144 $
KMGM 141253Z 03003KT 10SM OVC039 17/14 A3011 RMK AO2 SLP195 T01670144 $
KMGM 141153Z 00000KT 10SM FEW041 BKN100 16/14 A3011 RMK AO2 SLP193 70015 T01560139 10161 20150 51011 $
KMGM 141053Z AUTO 00000KT 10SM BKN045 OVC075 16/14 A3010 RMK AO2 SLP192 T01560139 $
KMGM 140953Z AUTO 02004KT 10SM FEW075 SCT095 SCT120 16/14 A3008 RMK AO2 SLP183 T01560139 $
KMGM 140853Z AUTO 00000KT 10SM SCT075 OVC095 16/14 A3007 RMK AO2 SLP182 T01560139 51005 $
KMGM 140753Z AUTO 00000KT 10SM BKN100 16/14 A3007 RMK AO2 SLP181 T01560139 $
KMGM 140653Z AUTO 34005KT 10SM CLR 15/14 A3007 RMK AO2 SLP181 T01500139 $
KMGM 140553Z AUTO 00000KT 10SM SCT090 BKN100 16/14 A3006 RMK AO2 RAE06 SLP176 P0000 60009 T01560139 10183 20156 402330156 58006 $
KMGM 140453Z AUTO 04003KT 6SM RA BR SCT041 OVC095 16/14 A3007 RMK AO2 RAB44 SLP182 P0002 T01610139 $
KMGM 140432Z AUTO 00000KT 10SM SCT008 OVC090 16/14 A3008 RMK AO2 T01610139 $
KMGM 140353Z AUTO 35006KT 10SM FEW003 BKN008 OVC100 16/14 A3008 RMK AO2 SLP185 T01610144 $
KMGM 140338Z AUTO 34005KT 10SM SCT008 SCT080 OVC110 16/14 A3008 RMK AO2 T01610144 $
KMGM 140253Z 15004KT 10SM FEW047 BKN095 OVC110 17/14 A3007 RMK AO2 RAB02E53 SLP182 P0005 60007 T01670144 58003 $
KMGM 140153Z 01005KT 10SM OVC080 17/14 A3009 RMK AO2 SLP187 T01720144 $
KMGM 140053Z 33007KT 10SM BKN090 OVC110 17/15 A3009 RMK AO2 RAE36 SLP189 P0002 T01720150 $
KMGM 132353Z 34007KT 8SM -RA OVC100 18/15 A3008 RMK AO2 RAB10 SLP184 P0001 60001 T01830150 10233 20183 53013 $
KMGM 132253Z 32004KT 10SM FEW065 FEW080 BKN120 22/16 A3006 RMK AO2 RAB45E50 SLP178 P0000 T02170161 $
KMGM 132153Z 04003KT 10SM CLR 23/16 A3004 RMK AO2 SLP172 T02280161 $
KMGM 132053Z 33004KT 10SM SCT022 23/16 A3004 RMK AO2 SLP171 T02330161 56010 $
KMGM 131953Z 32005KT 6SM HZ OVC017 23/17 A3005 RMK AO2 SLP173 T02280172 $
KMGM 131855Z 34005KT 6SM HZ FEW007 BKN021 22/18 A3005 RMK AO2 T02170178 $
KMGM 131853Z VRB03KT 2SM HZ OVC004 21/17 A3005 RMK AO2 SLP173 T02110172 $
KMGM 131753Z 30007KT 2SM BR OVC004 19/17 A3007 RMK AO2 SLP182 60005 T01890172 10217 20172 51001 $
KMGM 131735Z 29007KT 2SM BR OVC004 19/17 A3008 RMK AO2 T01890172 $
KMGM 131653Z 31005KT 8SM BKN006 OVC014 19/17 A3007 RMK AO2 LTG DSNT SE RAE32 SLP182 P0005 T01940172 $
KMGM 131642Z 29005KT 8SM FEW006 OVC014 19/17 A3008 RMK AO2 RAE32 P0005 T01890172 $
KMGM 131618Z 31004KT 3SM RA BR OVC016 19/17 A3008 RMK AO2 P0005 T01890172 $
KMGM 131608Z 30006KT 1 3/4SM +RA OVC017 19/17 A3008 RMK AO2 P0002 T01940167 $
KMGM 131553Z 30007KT 10SM -RA OVC017 21/16 A3007 RMK AO2 RAB44 SLP182 P0000 T02060156 $
KMGM 131453Z 00000KT 10SM BKN016 OVC065 21/16 A3007 RMK AO2 SLP181 T02060156 50006 $
KMGM 131440Z 00000KT 10SM FEW016 OVC065 20/15 A3007 RMK AO2 T02000150 $
KMGM 131353Z 27004KT 10SM OVC019 18/16 A3008 RMK AO2 SLP185 T01830161 $
KMGM 131253Z 00000KT 9SM OVC020 18/16 A3006 RMK AO2 SLP178 T01780156 $
KMGM 131224Z 00000KT 10SM BKN024 OVC055 18/16 A3006 RMK AO2 T01780156 $
KMGM 131153Z 00000KT 10SM SCT021 OVC060 17/16 A3005 RMK AO2 SLP175 60000 T01720156 10172 20161 53013 $
KMGM 131144Z 00000KT 9SM BKN021 OVC055 17/16 A3005 RMK AO2 T01720156 $
KMGM 131053Z 00000KT 10SM OVC032 17/15 A3004 RMK AO2 RAB20E30 SLP170 P0000 T01720150 $
KMGM 131041Z AUTO 00000KT 10SM SCT023 OVC030 17/15 A3003 RMK AO2 RAB20E30 P0000 T01720150 $
KMGM 130953Z AUTO 00000KT 10SM OVC027 17/15 A3002 RMK AO2 SLP164 T01720150 $
KMGM 130944Z AUTO 26003KT 10SM OVC028 17/15 A3002 RMK AO2 T01670150 $
KMGM 130906Z AUTO 00000KT 10SM BKN030 17/15 A3001 RMK AO2 T01670150 $
KMGM 130853Z AUTO 00000KT 10SM BKN028 17/15 A3002 RMK AO2 SLP162 T01670150 55001 $
KMGM 130753Z AUTO 00000KT 10SM BKN027 OVC032 17/15 A3001 RMK AO2 SLP162 T01670150 $
KMGM 130653Z AUTO 00000KT 10SM SCT027 BKN050 16/15 A3002 RMK AO2 SLP164 T01610150 $
KMGM 130553Z AUTO 00000KT 10SM BKN050 16/14 A3002 RMK AO2 SLP164 T01610144 10178 20161 402720161 58012 $
KMGM 130453Z AUTO 25003KT 10SM SCT070 17/15 A3003 RMK AO2 SLP167 T01670150 $
KMGM 130353Z AUTO 25003KT 10SM BKN055 OVC075 17/15 A3005 RMK AO2 SLP172 T01720150 $
KMGM 130253Z 28004KT 10SM OVC055 17/16 A3005 RMK AO2 SLP175 T01720156 58001 $
KMGM 130153Z 30004KT 8SM OVC044 17/16 A3006 RMK AO2 SLP177 T01720156 $
KMGM 130053Z 32006KT 10SM FEW005 OVC049 17/16 A3006 RMK AO2 SLP177 T01720156 $